createdAt,value
2022-09-28T00:00:26.424Z,92.85
2022-09-28T00:01:01.074Z,92.72
2022-09-28T00:01:33.265Z,92.45
2022-09-28T00:02:05.551Z,92.71
2022-09-28T00:02:40.836Z,92.45
2022-09-28T00:03:13.872Z,92.19
2022-09-28T00:03:46.773Z,92.02
2022-09-28T00:04:21.569Z,92.58
2022-09-28T00:04:53.644Z,92.25
2022-09-28T00:05:27.123Z,91.86
2022-09-28T00:06:02.578Z,92.43
2022-09-28T00:06:37.226Z,92.19
2022-09-28T00:07:09.306Z,92.29
2022-09-28T00:07:44.045Z,92.22
2022-09-28T00:08:18.852Z,91.86
2022-09-28T00:08:51.846Z,91.82
2022-09-28T00:09:23.971Z,91.98
2022-09-28T00:09:58.630Z,91.68
2022-09-28T00:10:30.767Z,91.75
2022-09-28T00:11:03.810Z,91.62
2022-09-28T00:11:38.692Z,91.82
2022-09-28T00:12:11.917Z,91.78
2022-09-28T00:12:44.001Z,92.03
2022-09-28T00:13:18.735Z,91.42
2022-09-28T00:13:52.446Z,91.62
2022-09-28T00:14:24.674Z,91.85
2022-09-28T00:14:59.589Z,91.80
2022-09-28T00:15:31.804Z,91.71
2022-09-28T00:16:05.229Z,91.44
2022-09-28T00:16:42.374Z,91.40
2022-09-28T00:17:16.916Z,91.19
2022-09-28T00:17:48.998Z,91.32
2022-09-28T00:18:24.249Z,91.41
2022-09-28T00:18:56.583Z,91.21
2022-09-28T00:19:31.284Z,91.45
2022-09-28T00:20:05.576Z,91.60
2022-09-28T00:20:37.849Z,91.27
2022-09-28T00:21:14.455Z,91.12
2022-09-28T00:21:46.690Z,91.28
2022-09-28T00:22:18.852Z,91.45
2022-09-28T00:22:56.103Z,91.24
2022-09-28T00:23:28.254Z,91.34
2022-09-28T00:24:15.893Z,91.49
2022-09-28T00:24:50.791Z,91.66
2022-09-28T00:25:25.051Z,91.52
2022-09-28T00:26:01.407Z,91.59
2022-09-28T00:26:34.286Z,91.79
2022-09-28T00:27:09.665Z,91.65
2022-09-28T00:27:42.317Z,91.85
2022-09-28T00:28:14.409Z,91.78
2022-09-28T00:28:46.526Z,91.89
2022-09-28T00:29:26.692Z,91.96
2022-09-28T00:29:59.098Z,91.74
2022-09-28T00:30:31.597Z,92.12
2022-09-28T00:31:06.329Z,92.18
2022-09-28T00:31:38.558Z,92.25
2022-09-28T00:32:13.473Z,91.92
2022-09-28T00:32:48.113Z,92.17
2022-09-28T00:33:20.186Z,92.02
2022-09-28T00:33:53.137Z,91.99
2022-09-28T00:34:28.005Z,91.97
2022-09-28T00:35:00.078Z,91.90
2022-09-28T00:35:32.183Z,92.22
2022-09-28T00:36:08.485Z,92.38
2022-09-28T00:36:44.305Z,92.00
2022-09-28T00:37:21.746Z,92.27
2022-09-28T00:37:56.477Z,92.39
2022-09-28T00:38:29.659Z,92.30
2022-09-28T00:39:06.684Z,92.57
2022-09-28T00:39:43.559Z,92.21
2022-09-28T00:40:16.118Z,92.48
2022-09-28T00:40:48.234Z,93.02
2022-09-28T00:41:20.405Z,92.84
2022-09-28T00:41:55.115Z,92.75
2022-09-28T00:42:27.546Z,92.77
2022-09-28T00:43:00.065Z,92.99
2022-09-28T00:43:34.798Z,93.14
2022-09-28T00:44:34.534Z,93.12
2022-09-28T00:45:11.795Z,93.33
2022-09-28T00:45:44.509Z,93.07
2022-09-28T00:46:21.389Z,93.11
2022-09-28T00:46:56.792Z,93.41
2022-09-28T00:47:42.643Z,93.44
2022-09-28T00:48:15.043Z,93.15
2022-09-28T00:48:54.568Z,93.29
2022-09-28T00:49:35.823Z,93.13
2022-09-28T00:50:14.237Z,93.34
2022-09-28T00:50:46.573Z,92.90
2022-09-28T00:51:21.567Z,93.33
2022-09-28T00:51:53.743Z,93.06
2022-09-28T00:52:30.237Z,93.13
2022-09-28T00:53:14.509Z,93.13
2022-09-28T00:53:47.613Z,93.33
2022-09-28T00:54:19.782Z,93.06
2022-09-28T00:54:56.208Z,93.11
2022-09-28T00:55:35.997Z,92.72
2022-09-28T00:56:11.556Z,92.67
2022-09-28T00:56:50.131Z,93.05
2022-09-28T00:57:23.443Z,92.82
2022-09-28T00:58:02.769Z,93.14
2022-09-28T00:58:39.617Z,92.82
2022-09-28T00:59:11.729Z,92.62
2022-09-28T00:59:47.187Z,93.00
2022-09-28T01:00:19.817Z,92.62
2022-09-28T01:00:56.122Z,92.44
2022-09-28T01:01:28.700Z,92.55
2022-09-28T01:02:01.774Z,92.18
2022-09-28T01:02:36.606Z,91.98
2022-09-28T01:03:09.165Z,92.01
2022-09-28T01:03:45.483Z,92.45
2022-09-28T01:04:21.292Z,92.29
2022-09-28T01:04:53.826Z,92.20
2022-09-28T01:05:30.263Z,92.04
2022-09-28T01:06:05.136Z,92.12
2022-09-28T01:06:39.141Z,92.21
2022-09-28T01:07:15.509Z,92.40
2022-09-28T01:07:48.846Z,92.07
2022-09-28T01:08:28.764Z,92.40
2022-09-28T01:09:04.622Z,92.29
2022-09-28T01:09:39.390Z,92.40
2022-09-28T01:10:14.344Z,92.05
2022-09-28T01:10:47.082Z,92.46
2022-09-28T01:11:22.562Z,92.34
2022-09-28T01:11:57.763Z,92.53
2022-09-28T01:12:30.250Z,92.57
2022-09-28T01:13:02.533Z,92.17
2022-09-28T01:13:37.307Z,92.29
2022-09-28T01:14:12.354Z,92.17
2022-09-28T01:14:45.200Z,92.51
2022-09-28T01:15:21.897Z,92.49
2022-09-28T01:16:03.618Z,92.38
2022-09-28T01:16:42.338Z,92.21
2022-09-28T01:17:33.623Z,92.52
2022-09-28T01:18:17.504Z,92.30
2022-09-28T01:19:01.548Z,92.70
2022-09-28T01:20:09.290Z,92.34
2022-09-28T01:21:00.202Z,92.94
2022-09-28T01:21:39.733Z,92.63
2022-09-28T01:22:26.769Z,92.59
2022-09-28T01:23:32.519Z,92.85
2022-09-28T01:24:22.627Z,93.23
2022-09-28T01:25:01.544Z,92.94
2022-09-28T01:25:41.515Z,92.96
2022-09-28T01:26:56.623Z,93.30
2022-09-28T01:27:32.340Z,93.30
2022-09-28T01:28:08.027Z,93.14
2022-09-28T01:28:46.506Z,93.36
2022-09-28T01:29:29.710Z,93.12
2022-09-28T01:30:08.605Z,93.25
2022-09-28T01:30:47.414Z,93.13
2022-09-28T01:31:26.125Z,92.94
2022-09-28T01:32:13.582Z,92.71
2022-09-28T01:32:51.493Z,92.91
2022-09-28T01:33:28.420Z,93.24
2022-09-28T01:34:07.998Z,92.69
2022-09-28T01:34:47.387Z,92.99
2022-09-28T01:35:27.906Z,92.54
2022-09-28T01:36:03.170Z,92.85
2022-09-28T01:36:42.887Z,92.83
2022-09-28T01:37:22.697Z,92.66
2022-09-28T01:38:00.691Z,92.82
2022-09-28T01:38:37.920Z,92.76
2022-09-28T01:39:16.162Z,92.58
2022-09-28T01:39:50.286Z,92.99
2022-09-28T01:40:27.977Z,92.54
2022-09-28T01:41:01.239Z,92.71
2022-09-28T01:41:36.908Z,93.09
2022-09-28T01:42:20.306Z,92.48
2022-09-28T01:42:57.842Z,92.92
2022-09-28T01:43:35.523Z,92.49
2022-09-28T01:44:15.119Z,92.84
2022-09-28T01:44:53.470Z,92.72
2022-09-28T01:45:31.401Z,92.42
2022-09-28T01:46:14.571Z,92.65
2022-09-28T01:46:49.425Z,92.47
2022-09-28T01:47:24.360Z,92.71
2022-09-28T01:48:03.162Z,92.81
2022-09-28T01:48:40.398Z,92.33
2022-09-28T01:49:18.740Z,92.74
2022-09-28T01:50:01.112Z,92.57
2022-09-28T01:50:38.147Z,92.72
2022-09-28T01:51:15.065Z,92.58
2022-09-28T01:51:55.475Z,92.23
2022-09-28T01:52:34.166Z,92.22
2022-09-28T01:53:15.996Z,92.50
2022-09-28T01:53:56.074Z,92.23
2022-09-28T01:54:42.130Z,92.51
2022-09-28T01:55:24.319Z,92.32
2022-09-28T01:56:03.179Z,92.64
2022-09-28T01:56:40.560Z,92.05
2022-09-28T01:57:22.574Z,92.41
2022-09-28T01:58:01.079Z,91.88
2022-09-28T01:58:41.431Z,92.12
2022-09-28T01:59:17.690Z,92.27
2022-09-28T01:59:57.816Z,91.99
2022-09-28T02:00:33.152Z,91.87
2022-09-28T02:01:13.228Z,91.64
2022-09-28T02:01:52.154Z,91.98
2022-09-28T02:02:31.187Z,91.75
2022-09-28T02:03:11.118Z,91.71
2022-09-28T02:04:02.527Z,91.54
2022-09-28T02:04:42.009Z,91.96
2022-09-28T02:05:18.569Z,91.57
2022-09-28T02:05:58.913Z,91.91
2022-09-28T02:06:38.873Z,91.59
2022-09-28T02:07:16.709Z,91.78
2022-09-28T02:07:59.717Z,91.59
2022-09-28T02:08:35.286Z,91.52
2022-09-28T02:09:11.835Z,91.30
2022-09-28T02:09:58.563Z,91.67
2022-09-28T02:10:33.673Z,91.45
2022-09-28T02:11:11.674Z,91.27
2022-09-28T02:11:53.701Z,91.24
2022-09-28T02:12:33.787Z,91.57
2022-09-28T02:13:11.278Z,91.54
2022-09-28T02:13:49.842Z,91.45
2022-09-28T02:14:23.818Z,91.48
2022-09-28T02:15:06.686Z,91.02
2022-09-28T02:15:46.002Z,91.01
2022-09-28T02:16:22.992Z,91.30
2022-09-28T02:16:56.722Z,91.29
2022-09-28T02:17:37.644Z,91.03
2022-09-28T02:18:10.829Z,91.28
2022-09-28T02:18:45.008Z,91.01
2022-09-28T02:19:24.384Z,91.17
2022-09-28T02:19:56.645Z,90.71
2022-09-28T02:20:34.859Z,91.11
2022-09-28T02:21:13.371Z,90.96
2022-09-28T02:21:54.035Z,91.04
2022-09-28T02:22:37.450Z,90.78
2022-09-28T02:23:10.894Z,91.08
2022-09-28T02:23:52.483Z,90.59
2022-09-28T02:24:33.769Z,90.88
2022-09-28T02:25:11.036Z,90.79
2022-09-28T02:25:49.843Z,91.13
2022-09-28T02:26:32.373Z,91.14
2022-09-28T02:27:12.884Z,90.66
2022-09-28T02:27:59.814Z,91.09
2022-09-28T02:28:32.738Z,91.05
2022-09-28T02:29:05.160Z,90.77
2022-09-28T02:29:39.857Z,90.96
2022-09-28T02:30:12.607Z,90.99
2022-09-28T02:30:45.264Z,91.08
2022-09-28T02:31:21.542Z,90.56
2022-09-28T02:31:53.917Z,90.75
2022-09-28T02:32:28.789Z,90.44
2022-09-28T02:33:10.297Z,90.80
2022-09-28T02:33:44.524Z,90.96
2022-09-28T02:34:16.679Z,90.92
2022-09-28T02:34:51.360Z,90.90
2022-09-28T02:35:23.654Z,90.84
2022-09-28T02:35:57.742Z,90.60
2022-09-28T02:36:36.315Z,90.79
2022-09-28T02:37:08.499Z,90.77
2022-09-28T02:37:41.259Z,90.72
2022-09-28T02:38:17.875Z,90.43
2022-09-28T02:38:50.038Z,90.66
2022-09-28T02:39:22.567Z,90.48
2022-09-28T02:39:57.281Z,90.41
2022-09-28T02:40:33.907Z,90.28
2022-09-28T02:41:15.963Z,90.37
2022-09-28T02:42:04.607Z,90.36
2022-09-28T02:42:46.440Z,90.44
2022-09-28T02:43:29.718Z,90.50
2022-09-28T02:44:15.457Z,90.55
2022-09-28T02:45:00.930Z,90.60
2022-09-28T02:45:49.191Z,90.58
2022-09-28T02:46:29.947Z,90.63
2022-09-28T02:47:23.040Z,90.83
2022-09-28T02:48:07.785Z,90.46
2022-09-28T02:49:30.244Z,90.51
2022-09-28T02:50:06.476Z,90.77
2022-09-28T02:50:44.997Z,91.17
2022-09-28T02:51:26.897Z,90.74
2022-09-28T02:52:16.272Z,91.12
2022-09-28T02:53:10.920Z,90.95
2022-09-28T02:54:06.379Z,91.29
2022-09-28T02:54:59.466Z,90.77
2022-09-28T02:55:44.560Z,91.18
2022-09-28T02:56:39.176Z,91.08
2022-09-28T02:57:20.458Z,90.73
2022-09-28T02:58:10.748Z,91.13
2022-09-28T02:58:59.885Z,91.19
2022-09-28T02:59:44.219Z,91.20
2022-09-28T03:00:19.326Z,90.84
2022-09-28T03:01:04.273Z,91.04
2022-09-28T03:01:44.769Z,91.14
2022-09-28T03:02:20.853Z,91.15
2022-09-28T03:03:04.968Z,90.86
2022-09-28T03:03:47.190Z,91.02
2022-09-28T03:04:29.425Z,90.82
2022-09-28T03:05:16.737Z,91.11
2022-09-28T03:05:58.183Z,91.17
2022-09-28T03:06:40.292Z,90.99
2022-09-28T03:07:22.684Z,90.81
2022-09-28T03:07:59.609Z,90.69
2022-09-28T03:08:40.966Z,91.05
2022-09-28T03:09:21.729Z,90.88
2022-09-28T03:09:59.943Z,91.16
2022-09-28T03:10:41.793Z,90.60
2022-09-28T03:11:17.046Z,91.06
2022-09-28T03:11:56.254Z,90.81
2022-09-28T03:12:33.324Z,90.93
2022-09-28T03:13:07.572Z,90.66
2022-09-28T03:13:41.660Z,91.07
2022-09-28T03:14:19.669Z,90.90
2022-09-28T03:15:09.780Z,91.09
2022-09-28T03:15:48.521Z,91.04
2022-09-28T03:16:21.458Z,90.98
2022-09-28T03:16:54.785Z,90.76
2022-09-28T03:17:29.587Z,91.18
2022-09-28T03:18:02.071Z,91.31
2022-09-28T03:18:34.239Z,91.00
2022-09-28T03:19:08.930Z,90.67
2022-09-28T03:19:41.015Z,91.18
2022-09-28T03:20:13.186Z,90.82
2022-09-28T03:20:49.626Z,90.90
2022-09-28T03:21:21.898Z,90.60
2022-09-28T03:21:55.315Z,90.86
2022-09-28T03:22:30.110Z,90.65
2022-09-28T03:23:57.794Z,90.63
2022-09-28T03:24:29.857Z,90.97
2022-09-28T03:25:02.017Z,91.00
2022-09-28T03:25:36.826Z,90.62
2022-09-28T03:26:09.278Z,90.84
2022-09-28T03:26:41.593Z,90.59
2022-09-28T03:27:17.322Z,90.45
2022-09-28T03:27:49.516Z,90.59
2022-09-28T03:28:22.218Z,90.23
2022-09-28T03:28:57.135Z,90.45
2022-09-28T03:29:34.551Z,90.28
2022-09-28T03:30:14.267Z,90.08
2022-09-28T03:30:49.357Z,90.49
2022-09-28T03:31:21.468Z,90.40
2022-09-28T03:31:56.217Z,90.07
2022-09-28T03:32:28.609Z,90.06
2022-09-28T03:33:02.632Z,90.16
2022-09-28T03:33:39.728Z,89.86
2022-09-28T03:34:11.917Z,90.01
2022-09-28T03:34:44.010Z,90.23
2022-09-28T03:35:19.003Z,90.07
2022-09-28T03:35:51.420Z,89.78
2022-09-28T03:36:26.607Z,90.07
2022-09-28T03:36:58.713Z,89.66
2022-09-28T03:37:31.166Z,89.81
2022-09-28T03:38:06.049Z,89.67
2022-09-28T03:38:40.815Z,89.75
2022-09-28T03:39:12.939Z,89.78
2022-09-28T03:39:47.623Z,89.69
2022-09-28T03:40:19.746Z,89.72
2022-09-28T03:40:53.747Z,89.81
2022-09-28T03:41:29.328Z,89.72
2022-09-28T03:42:01.749Z,89.52
2022-09-28T03:42:37.677Z,89.49
2022-09-28T03:43:12.704Z,89.69
2022-09-28T03:43:45.160Z,89.36
2022-09-28T03:44:19.156Z,89.52
2022-09-28T03:44:56.926Z,89.43
2022-09-28T03:45:29.164Z,89.39
2022-09-28T03:46:02.349Z,89.32
2022-09-28T03:46:39.538Z,89.30
2022-09-28T03:47:15.876Z,89.54
2022-09-28T03:47:48.788Z,89.16
2022-09-28T03:48:31.878Z,89.50
2022-09-28T03:49:05.138Z,89.44
2022-09-28T03:49:37.385Z,89.27
2022-09-28T03:50:12.834Z,89.48
2022-09-28T03:50:45.011Z,89.30
2022-09-28T03:51:17.095Z,89.34
2022-09-28T03:51:51.771Z,89.07
2022-09-28T03:52:23.909Z,89.03
2022-09-28T03:52:56.017Z,88.91
2022-09-28T03:53:31.674Z,89.02
2022-09-28T03:54:05.815Z,89.08
2022-09-28T03:54:38.155Z,88.86
2022-09-28T03:55:13.707Z,89.02
2022-09-28T03:55:46.054Z,89.25
2022-09-28T03:56:18.307Z,89.21
2022-09-28T03:56:53.818Z,89.18
2022-09-28T03:57:26.088Z,89.00
2022-09-28T03:57:58.207Z,89.14
2022-09-28T03:58:33.209Z,89.04
2022-09-28T03:59:05.783Z,88.62
2022-09-28T03:59:38.019Z,88.94
2022-09-28T04:00:16.288Z,89.01
2022-09-28T04:00:49.280Z,89.12
2022-09-28T04:01:21.590Z,88.90
2022-09-28T04:01:57.222Z,89.12
2022-09-28T04:02:29.508Z,88.61
2022-09-28T04:03:01.671Z,88.95
2022-09-28T04:03:37.020Z,88.83
2022-09-28T04:04:12.037Z,88.44
2022-09-28T04:04:44.211Z,88.51
2022-09-28T04:05:19.126Z,88.82
2022-09-28T04:05:52.622Z,88.78
2022-09-28T04:06:24.918Z,88.47
2022-09-28T04:06:57.072Z,88.88
2022-09-28T04:07:32.631Z,88.39
2022-09-28T04:08:04.824Z,88.72
2022-09-28T04:08:37.014Z,88.72
2022-09-28T04:09:11.701Z,88.76
2022-09-28T04:09:43.846Z,88.30
2022-09-28T04:10:17.197Z,88.71
2022-09-28T04:10:51.949Z,88.48
2022-09-28T04:11:24.378Z,88.52
2022-09-28T04:12:03.891Z,88.13
2022-09-28T04:12:39.709Z,88.70
2022-09-28T04:13:12.434Z,88.65
2022-09-28T04:13:51.074Z,88.82
2022-09-28T04:14:23.543Z,88.80
2022-09-28T04:14:55.662Z,88.34
2022-09-28T04:15:32.932Z,88.34
2022-09-28T04:16:05.603Z,88.36
2022-09-28T04:16:39.600Z,88.50
2022-09-28T04:17:18.051Z,88.73
2022-09-28T04:17:50.335Z,88.74
2022-09-28T04:18:42.551Z,88.70
2022-09-28T04:19:25.349Z,88.77
2022-09-28T04:20:18.018Z,88.74
2022-09-28T04:21:09.425Z,88.71
2022-09-28T04:21:59.200Z,88.97
2022-09-28T04:22:34.806Z,88.86
2022-09-28T04:23:07.025Z,88.70
2022-09-28T04:23:40.241Z,88.76
2022-09-28T04:24:15.078Z,88.84
2022-09-28T04:24:47.314Z,88.60
2022-09-28T04:25:19.438Z,88.87
2022-09-28T04:25:55.239Z,88.58
2022-09-28T04:26:28.487Z,88.87
2022-09-28T04:27:16.876Z,88.86
2022-09-28T04:28:04.841Z,88.89
2022-09-28T04:28:51.992Z,88.72
2022-09-28T04:29:27.526Z,88.54
2022-09-28T04:30:01.575Z,88.79
2022-09-28T04:30:37.302Z,88.81
2022-09-28T04:31:14.073Z,88.95
2022-09-28T04:31:49.868Z,88.51
2022-09-28T04:32:24.761Z,88.69
2022-09-28T04:32:59.437Z,88.77
2022-09-28T04:33:34.433Z,89.01
2022-09-28T04:34:06.739Z,88.99
2022-09-28T04:34:44.082Z,88.92
2022-09-28T04:35:16.741Z,88.58
2022-09-28T04:35:48.909Z,88.84
2022-09-28T04:36:25.163Z,88.62
2022-09-28T04:36:57.303Z,88.93
2022-09-28T04:37:31.391Z,88.78
2022-09-28T04:38:06.206Z,88.98
2022-09-28T04:38:52.321Z,89.03
2022-09-28T04:39:27.483Z,88.91
2022-09-28T04:40:04.576Z,88.52
2022-09-28T04:40:37.313Z,89.01
2022-09-28T04:41:09.829Z,88.73
2022-09-28T04:41:45.187Z,88.46
2022-09-28T04:42:17.719Z,88.50
2022-09-28T04:42:54.082Z,88.92
2022-09-28T04:43:28.826Z,88.53
2022-09-28T04:44:01.189Z,88.54
2022-09-28T04:44:36.012Z,88.60
2022-09-28T04:45:12.624Z,88.69
2022-09-28T04:45:54.278Z,88.45
2022-09-28T04:46:27.169Z,89.03
2022-09-28T04:47:21.998Z,89.08
2022-09-28T04:48:12.742Z,88.50
2022-09-28T04:49:20.011Z,88.89
2022-09-28T04:49:57.148Z,88.74
2022-09-28T04:50:40.134Z,88.90
2022-09-28T04:51:20.477Z,88.63
2022-09-28T04:51:55.152Z,89.01
2022-09-28T04:52:27.394Z,89.01
2022-09-28T04:53:00.977Z,88.75
2022-09-28T04:53:35.878Z,88.64
2022-09-28T04:54:07.980Z,88.32
2022-09-28T04:54:40.079Z,88.80
2022-09-28T04:55:15.740Z,88.44
2022-09-28T04:55:58.982Z,88.61
2022-09-28T04:56:33.670Z,88.68
2022-09-28T04:57:06.270Z,88.35
2022-09-28T04:57:38.400Z,88.58
2022-09-28T04:58:10.502Z,88.22
2022-09-28T04:58:48.998Z,88.39
2022-09-28T04:59:24.437Z,88.06
2022-09-28T04:59:56.584Z,88.27
2022-09-28T05:00:35.990Z,88.21
2022-09-28T05:01:37.121Z,88.39
2022-09-28T05:02:30.693Z,88.33
2022-09-28T05:03:26.618Z,88.40
2022-09-28T05:04:36.496Z,88.39
2022-09-28T05:05:43.501Z,88.31
2022-09-28T05:06:37.479Z,88.33
2022-09-28T05:07:13.065Z,88.26
2022-09-28T05:07:46.132Z,88.27
2022-09-28T05:08:21.118Z,88.49
2022-09-28T05:08:54.021Z,88.43
2022-09-28T05:09:28.930Z,88.32
2022-09-28T05:10:01.691Z,88.35
2022-09-28T05:10:36.345Z,88.23
2022-09-28T05:11:14.766Z,88.33
2022-09-28T05:11:49.444Z,88.05
2022-09-28T05:12:26.817Z,88.26
2022-09-28T05:12:59.019Z,88.41
2022-09-28T05:13:33.586Z,88.13
2022-09-28T05:14:08.595Z,88.28
2022-09-28T05:14:41.464Z,88.18
2022-09-28T05:15:13.542Z,87.96
2022-09-28T05:15:48.384Z,87.92
2022-09-28T05:16:21.475Z,87.70
2022-09-28T05:17:37.320Z,87.82
2022-09-28T05:18:14.787Z,88.20
2022-09-28T05:18:58.065Z,88.09
2022-09-28T05:19:30.507Z,87.85
2022-09-28T05:20:09.217Z,87.35
2022-09-28T05:20:44.424Z,87.79
2022-09-28T05:21:16.594Z,87.74
2022-09-28T05:21:49.286Z,87.31
2022-09-28T05:22:24.470Z,87.36
2022-09-28T05:22:56.703Z,87.28
2022-09-28T05:23:28.961Z,87.34
2022-09-28T05:24:07.745Z,86.82
2022-09-28T05:24:42.871Z,86.96
2022-09-28T05:25:15.301Z,86.96
2022-09-28T05:26:08.900Z,86.98
2022-09-28T05:26:41.558Z,87.00
2022-09-28T05:27:15.454Z,86.74
2022-09-28T05:27:58.574Z,86.79
2022-09-28T05:28:42.857Z,86.62
2022-09-28T05:29:30.101Z,86.83
2022-09-28T05:30:22.886Z,86.58
2022-09-28T05:31:33.103Z,86.51
2022-09-28T05:32:26.445Z,86.81
2022-09-28T05:33:21.286Z,86.85
2022-09-28T05:34:01.482Z,86.36
2022-09-28T05:34:36.497Z,86.67
2022-09-28T05:35:11.185Z,85.94
2022-09-28T05:35:55.942Z,86.42
2022-09-28T05:36:32.592Z,86.26
2022-09-28T05:37:04.698Z,86.41
2022-09-28T05:37:39.530Z,86.33
2022-09-28T05:38:11.842Z,85.96
2022-09-28T05:38:43.990Z,86.01
2022-09-28T05:39:18.858Z,85.58
2022-09-28T05:39:50.991Z,85.51
2022-09-28T05:40:23.625Z,85.78
2022-09-28T05:41:01.156Z,85.56
2022-09-28T05:41:35.577Z,85.61
2022-09-28T05:42:08.111Z,85.58
2022-09-28T05:42:40.862Z,85.30
2022-09-28T05:43:15.665Z,85.06
2022-09-28T05:43:48.834Z,85.35
2022-09-28T05:44:23.574Z,85.56
2022-09-28T05:44:58.429Z,85.16
2022-09-28T05:45:30.617Z,85.53
2022-09-28T05:46:05.515Z,85.13
2022-09-28T05:46:39.283Z,85.02
2022-09-28T05:47:11.449Z,85.04
2022-09-28T05:47:47.605Z,85.20
2022-09-28T05:48:26.246Z,85.18
2022-09-28T05:48:59.775Z,85.40
2022-09-28T05:49:35.186Z,85.41
2022-09-28T05:50:09.670Z,85.17
2022-09-28T05:50:41.968Z,85.03
2022-09-28T05:51:16.682Z,85.00
2022-09-28T05:51:48.843Z,85.07
2022-09-28T05:52:23.612Z,84.84
2022-09-28T05:52:59.938Z,84.88
2022-09-28T05:53:34.660Z,85.06
2022-09-28T05:54:06.868Z,84.81
2022-09-28T05:54:43.143Z,85.17
2022-09-28T05:55:18.846Z,84.95
2022-09-28T05:55:51.110Z,85.08
2022-09-28T05:56:25.941Z,84.80
2022-09-28T05:56:58.329Z,84.63
2022-09-28T05:57:31.913Z,84.42
2022-09-28T05:58:08.809Z,84.71
2022-09-28T05:58:40.898Z,84.31
2022-09-28T05:59:14.239Z,84.64
2022-09-28T05:59:49.669Z,84.64
2022-09-28T06:00:21.827Z,84.42
2022-09-28T06:01:01.438Z,84.61
2022-09-28T06:01:35.112Z,84.17
2022-09-28T06:02:08.212Z,84.44
2022-09-28T06:02:43.305Z,84.43
2022-09-28T06:03:18.027Z,84.42
2022-09-28T06:03:55.485Z,83.87
2022-09-28T06:04:27.798Z,83.66
2022-09-28T06:05:00.022Z,83.91
2022-09-28T06:05:34.991Z,84.04
2022-09-28T06:06:07.238Z,83.97
2022-09-28T06:06:48.595Z,83.64
2022-09-28T06:07:23.002Z,83.64
2022-09-28T06:07:57.183Z,83.61
2022-09-28T06:08:34.042Z,83.55
2022-09-28T06:09:21.682Z,83.59
2022-09-28T06:10:18.601Z,83.59
2022-09-28T06:10:50.845Z,83.28
2022-09-28T06:11:25.348Z,83.67
2022-09-28T06:12:01.070Z,83.44
2022-09-28T06:12:59.369Z,83.31
2022-09-28T06:13:35.123Z,83.25
2022-09-28T06:14:07.767Z,83.48
2022-09-28T06:14:40.388Z,83.43
2022-09-28T06:15:15.070Z,83.28
2022-09-28T06:15:48.102Z,83.09
2022-09-28T06:16:20.819Z,83.28
2022-09-28T06:16:55.556Z,82.72
2022-09-28T06:17:27.976Z,82.84
2022-09-28T06:18:22.714Z,82.99
2022-09-28T06:19:22.198Z,82.65
2022-09-28T06:20:15.466Z,82.65
2022-09-28T06:21:02.720Z,82.72
2022-09-28T06:21:43.810Z,82.66
2022-09-28T06:22:16.125Z,83.01
2022-09-28T06:23:00.996Z,82.58
2022-09-28T06:23:33.124Z,83.08
2022-09-28T06:24:05.709Z,82.61
2022-09-28T06:24:40.522Z,82.59
2022-09-28T06:25:12.764Z,82.98
2022-09-28T06:25:44.912Z,82.71
2022-09-28T06:26:20.174Z,82.90
2022-09-28T06:26:52.254Z,82.65
2022-09-28T06:27:25.327Z,82.58
2022-09-28T06:28:01.766Z,82.34
2022-09-28T06:28:33.879Z,82.62
2022-09-28T06:29:06.046Z,82.42
2022-09-28T06:29:40.794Z,82.33
2022-09-28T06:30:13.379Z,82.43
2022-09-28T06:30:45.809Z,82.06
2022-09-28T06:31:25.061Z,82.10
2022-09-28T06:31:57.199Z,82.01
2022-09-28T06:32:29.915Z,81.49
2022-09-28T06:33:05.304Z,81.18
2022-09-28T06:33:38.713Z,81.41
2022-09-28T06:34:11.764Z,81.45
2022-09-28T06:34:54.029Z,81.24
2022-09-28T06:35:30.920Z,80.93
2022-09-28T06:36:05.632Z,81.27
2022-09-28T06:36:37.795Z,81.11
2022-09-28T06:37:09.915Z,80.57
2022-09-28T06:37:47.409Z,80.76
2022-09-28T06:38:19.697Z,80.22
2022-09-28T06:38:56.145Z,80.57
2022-09-28T06:39:28.611Z,80.30
2022-09-28T06:40:01.242Z,80.50
2022-09-28T06:40:36.385Z,80.51
2022-09-28T06:41:09.980Z,80.59
2022-09-28T06:41:42.909Z,80.41
2022-09-28T06:42:23.489Z,80.61
2022-09-28T06:43:18.022Z,80.76
2022-09-28T06:44:08.735Z,80.58
2022-09-28T06:45:03.011Z,80.80
2022-09-28T06:45:54.220Z,81.24
2022-09-28T06:46:33.286Z,80.95
2022-09-28T06:47:05.510Z,80.75
2022-09-28T06:47:57.558Z,80.84
2022-09-28T06:48:38.211Z,80.70
2022-09-28T06:49:19.230Z,80.71
2022-09-28T06:50:14.660Z,81.01
2022-09-28T06:51:16.045Z,81.02
2022-09-28T06:52:02.804Z,80.88
2022-09-28T06:53:04.310Z,80.87
2022-09-28T06:53:55.541Z,81.28
2022-09-28T06:54:44.415Z,81.12
2022-09-28T06:55:29.251Z,80.72
2022-09-28T06:56:02.875Z,80.84
2022-09-28T06:56:38.197Z,81.11
2022-09-28T06:57:10.435Z,81.08
2022-09-28T06:57:42.529Z,81.04
2022-09-28T06:58:19.782Z,80.44
2022-09-28T06:58:52.054Z,80.74
2022-09-28T06:59:24.178Z,81.01
2022-09-28T06:59:59.476Z,81.27
2022-09-28T07:00:34.308Z,81.14
2022-09-28T07:01:09.699Z,81.30
2022-09-28T07:01:48.909Z,81.31
2022-09-28T07:02:52.626Z,81.60
2022-09-28T07:03:43.555Z,81.24
2022-09-28T07:04:44.998Z,81.71
2022-09-28T07:05:45.180Z,81.43
2022-09-28T07:06:38.678Z,81.98
2022-09-28T07:07:29.654Z,81.76
2022-09-28T07:08:14.445Z,81.92
2022-09-28T07:09:01.717Z,81.71
2022-09-28T07:09:56.409Z,81.57
2022-09-28T07:10:47.483Z,81.92
2022-09-28T07:11:34.455Z,81.70
2022-09-28T07:12:16.154Z,81.57
2022-09-28T07:13:02.072Z,81.86
2022-09-28T07:13:50.978Z,81.69
2022-09-28T07:14:45.749Z,81.93
2022-09-28T07:15:20.474Z,82.13
2022-09-28T07:15:57.755Z,81.91
2022-09-28T07:16:55.546Z,81.99
2022-09-28T07:17:24.728Z,81.69
2022-09-28T07:18:02.498Z,81.59
2022-09-28T07:18:35.564Z,81.75
2022-09-28T07:19:10.414Z,81.39
2022-09-28T07:19:42.577Z,81.27
2022-09-28T07:20:19.244Z,80.96
2022-09-28T07:20:59.114Z,80.86
2022-09-28T07:21:31.367Z,81.03
2022-09-28T07:22:09.048Z,81.20
2022-09-28T07:22:45.418Z,81.04
2022-09-28T07:23:23.798Z,81.30
2022-09-28T07:24:33.856Z,81.39
2022-09-28T07:25:25.700Z,81.20
2022-09-28T07:26:29.187Z,80.93
2022-09-28T07:27:07.165Z,81.46
2022-09-28T07:28:03.273Z,81.29
2022-09-28T07:28:55.997Z,81.34
2022-09-28T07:29:45.610Z,81.32
2022-09-28T07:30:29.093Z,81.60
2022-09-28T07:31:28.194Z,81.44
2022-09-28T07:32:16.579Z,81.31
2022-09-28T07:33:14.614Z,81.43
2022-09-28T07:34:10.520Z,81.54
2022-09-28T07:35:08.076Z,82.03
2022-09-28T07:35:55.453Z,81.77
2022-09-28T07:36:39.210Z,81.84
2022-09-28T07:37:11.854Z,81.78
2022-09-28T07:37:46.509Z,81.71
2022-09-28T07:38:19.106Z,81.55
2022-09-28T07:38:53.804Z,81.53
2022-09-28T07:39:26.031Z,81.53
2022-09-28T07:40:13.158Z,81.85
2022-09-28T07:41:00.510Z,81.60
2022-09-28T07:41:32.788Z,81.65
2022-09-28T07:42:10.079Z,81.52
2022-09-28T07:42:42.513Z,81.18
2022-09-28T07:43:20.575Z,81.59
2022-09-28T07:43:56.707Z,81.36
2022-09-28T07:44:29.894Z,81.38
2022-09-28T07:45:03.725Z,81.26
2022-09-28T07:45:38.701Z,81.00
2022-09-28T07:46:12.449Z,81.22
2022-09-28T07:46:51.749Z,80.99
2022-09-28T07:47:35.111Z,80.72
2022-09-28T07:48:28.937Z,80.74
2022-09-28T07:49:08.492Z,80.70
2022-09-28T07:50:05.065Z,80.84
2022-09-28T07:51:11.948Z,80.81
2022-09-28T07:51:46.622Z,80.35
2022-09-28T07:52:51.033Z,80.68
2022-09-28T07:53:43.384Z,80.67
2022-09-28T07:54:39.548Z,80.02
2022-09-28T07:55:30.159Z,80.48
2022-09-28T07:56:21.200Z,80.36
2022-09-28T07:57:00.305Z,79.52
2022-09-28T07:58:01.260Z,79.12
2022-09-28T07:58:56.452Z,78.96
2022-09-28T07:59:49.977Z,78.19
2022-09-28T08:00:40.434Z,78.14
2022-09-28T08:01:16.678Z,77.62
2022-09-28T08:01:49.593Z,77.59
2022-09-28T08:02:22.681Z,76.75
2022-09-28T08:02:57.473Z,76.58
2022-09-28T08:03:29.872Z,76.78
2022-09-28T08:04:04.853Z,76.49
2022-09-28T08:04:37.013Z,76.88
2022-09-28T08:05:12.577Z,76.46
2022-09-28T08:05:45.803Z,76.26
2022-09-28T08:06:23.378Z,76.35
2022-09-28T08:06:55.485Z,75.82
2022-09-28T08:07:27.742Z,75.56
2022-09-28T08:08:11.309Z,75.78
2022-09-28T08:08:44.778Z,75.43
2022-09-28T08:09:21.403Z,75.33
2022-09-28T08:10:13.881Z,75.30
2022-09-28T08:11:10.716Z,74.92
2022-09-28T08:12:04.591Z,74.97
2022-09-28T08:13:00.558Z,75.05
2022-09-28T08:13:58.252Z,74.47
2022-09-28T08:14:55.219Z,74.74
2022-09-28T08:15:52.064Z,74.31